Time;durP1;ratioP1;P1;durP2;ratioP2;P2;SDS_P1;SDS_P2;PMS_P1;PMS_P2;Temp;Humidity;BMP_temperature;BMP_pressure;BME280_temperature;BME280_humidity;BME280_pressure;Samples;Min_cycle;Max_cycle;Signal;HPM_P1;HPM_P2
2022/08/25 00:00:53;;;;;;;0.20;0.20;;;;;;;26.63;35.54;101074.44;5165953;28;20113;-80
2022/08/25 00:03:26;;;;;;;0.20;0.20;;;;;;;26.66;35.66;101074.13;5183783;28;20040;-80
2022/08/25 00:05:56;;;;;;;0.40;0.40;;;;;;;26.64;35.55;101076.16;5198644;28;20120;-80
2022/08/25 00:08:27;;;;;;;0.60;0.60;;;;;;;26.60;35.57;101084.63;5168533;28;20737;-82
2022/08/25 00:10:57;;;;;;;0.35;0.35;;;;;;;26.58;35.49;101082.06;5183527;28;20029;-80
2022/08/25 00:13:28;;;;;;;0.47;0.47;;;;;;;26.58;35.30;101082.06;5171175;28;20053;-79
2022/08/25 00:15:59;;;;;;;0.98;0.40;;;;;;;26.53;35.65;101081.63;5203787;28;20037;-80
2022/08/25 00:18:30;;;;;;;0.30;0.30;;;;;;;26.52;35.31;101079.91;5151719;28;20064;-80
2022/08/25 00:21:04;;;;;;;0.47;0.47;;;;;;;26.51;35.67;101083.59;5186191;28;20029;-80
2022/08/25 00:23:35;;;;;;;0.30;0.30;;;;;;;26.51;35.77;101080.91;5185432;28;20045;-80
2022/08/25 00:26:07;;;;;;;1.83;1.13;;;;;;;26.48;35.72;101090.09;5167189;28;20022;-80
2022/08/25 00:28:38;;;;;;;0.93;0.73;;;;;;;26.46;35.72;101083.16;5174731;28;20038;-80
2022/08/25 00:31:14;;;;;;;0.32;0.32;;;;;;;26.44;36.18;101091.38;5223236;28;20040;-80
2022/08/25 00:33:47;;;;;;;0.40;0.40;;;;;;;26.42;35.82;101087.09;5205426;28;20045;-79
2022/08/25 00:36:19;;;;;;;0.20;0.20;;;;;;;26.39;35.69;101089.09;5202255;28;20041;-80
2022/08/25 00:38:49;;;;;;;0.32;0.32;;;;;;;26.37;35.94;101096.44;5189408;28;20113;-81
2022/08/25 00:41:25;;;;;;;15.10;1.75;;;;;;;26.37;35.48;101093.75;5182904;28;20093;-80
2022/08/25 00:43:59;;;;;;;1.13;0.77;;;;;;;26.42;35.86;101087.09;5180771;28;20091;-80
2022/08/25 00:46:35;;;;;;;2.17;1.13;;;;;;;26.31;35.79;101099.69;5183127;28;20701;-80
2022/08/25 00:49:14;;;;;;;0.40;0.40;;;;;;;26.27;35.73;101094.72;5163029;28;20573;-80
2022/08/25 00:52:09;;;;;;;0.50;0.50;;;;;;;26.26;35.84;101088.47;5176804;28;20631;-81
2022/08/25 00:54:43;;;;;;;0.43;0.40;;;;;;;26.23;36.18;101099.50;5155292;28;20124;-80
2022/08/25 00:57:17;;;;;;;0.63;0.63;;;;;;;26.20;36.12;101092.53;5160480;28;20108;-80
2022/08/25 00:59:47;;;;;;;0.28;0.28;;;;;;;26.19;36.13;101100.75;5160406;28;20088;-80
2022/08/25 01:02:18;;;;;;;0.20;0.20;;;;;;;26.16;36.12;101096.50;5173031;28;20041;-80
2022/08/25 01:04:49;;;;;;;0.40;0.40;;;;;;;26.15;36.09;101091.28;5191202;28;20104;-80
2022/08/25 01:07:21;;;;;;;0.95;0.95;;;;;;;26.12;36.42;101095.06;5170466;28;20037;-80
2022/08/25 01:09:52;;;;;;;;;;;;;;;26.08;36.60;101096.31;5177130;28;20029;-80
2022/08/25 01:12:23;;;;;;;0.82;0.60;;;;;;;26.06;36.38;101096.44;5157857;28;19920;-80
2022/08/25 01:14:55;;;;;;;0.32;0.32;;;;;;;26.04;36.73;101095.72;5167512;28;20042;-79
2022/08/25 01:17:32;;;;;;;0.68;0.68;;;;;;;26.02;36.39;101091.47;5198694;28;20577;-80
2022/08/25 01:20:03;;;;;;;1.58;0.68;;;;;;;25.95;36.67;101096.50;5165644;28;20504;-80
2022/08/25 01:22:34;;;;;;;0.57;0.57;;;;;;;25.95;36.42;101095.66;5150493;28;20041;-80
2022/08/25 01:25:20;;;;;;;0.43;0.43;;;;;;;25.89;36.50;101095.19;5182699;28;20032;-80
2022/08/25 01:27:51;;;;;;;0.30;0.30;;;;;;;25.86;36.83;101097.28;5154683;28;20060;-80
2022/08/25 01:30:22;;;;;;;0.40;0.40;;;;;;;25.81;36.65;101095.00;5164332;28;20033;-79
2022/08/25 01:32:53;;;;;;;0.82;0.73;;;;;;;25.79;36.61;101090.75;5150353;28;20064;-80
2022/08/25 01:35:23;;;;;;;0.35;0.35;;;;;;;25.75;36.88;101091.00;5189631;28;20048;-80
2022/08/25 01:37:54;;;;;;;0.30;0.30;;;;;;;25.73;36.52;101092.13;5163522;28;20110;-80
2022/08/25 01:40:24;;;;;;;0.50;0.50;;;;;;;25.69;36.66;101091.53;5165959;28;20029;-80
2022/08/25 01:43:16;;;;;;;1.38;0.68;;;;;;;25.66;36.91;101096.31;5159953;28;20045;-80
2022/08/25 01:45:47;;;;;;;0.65;0.65;;;;;;;25.63;36.25;101089.38;5168796;28;20037;-79
2022/08/25 01:48:18;;;;;;;0.70;0.70;;;;;;;25.57;36.89;101089.91;5158948;28;20065;-79
2022/08/25 01:50:48;;;;;;;0.75;0.75;;;;;;;25.52;37.09;101094.81;5166830;28;20041;-80
2022/08/25 01:53:28;;;;;;;0.60;0.60;;;;;;;25.50;36.94;101099.44;5196282;28;20281;-80
2022/08/25 01:56:07;;;;;;;0.47;0.47;;;;;;;25.48;37.08;101093.38;5187621;28;20346;-80
2022/08/25 01:58:42;;;;;;;0.30;0.30;;;;;;;25.43;36.86;101099.97;5204946;28;20053;-81
2022/08/25 02:01:18;;;;;;;0.40;0.40;;;;;;;25.43;36.86;101104.50;5205386;28;20064;-79
2022/08/25 02:03:52;;;;;;;0.88;0.63;;;;;;;25.40;37.00;101107.44;5159929;28;20065;-80
2022/08/25 02:06:32;;;;;;;1.90;0.80;;;;;;;25.35;36.74;101099.75;5181834;28;20027;-80
2022/08/25 02:09:15;;;;;;;0.85;0.65;;;;;;;25.33;36.57;101101.69;5153209;28;20033;-80
2022/08/25 02:11:46;;;;;;;3.40;1.25;;;;;;;25.29;36.71;101097.56;5164606;28;20025;-80
2022/08/25 02:14:18;;;;;;;0.90;0.73;;;;;;;25.29;37.09;101106.47;5164447;28;20402;-79
2022/08/25 02:16:51;;;;;;;0.38;0.38;;;;;;;25.20;36.83;101109.94;5166045;28;20034;-79
2022/08/25 02:19:23;;;;;;;1.65;1.13;;;;;;;25.20;36.86;101101.03;5180825;28;20494;-79
2022/08/25 02:21:54;;;;;;;0.57;0.57;;;;;;;25.21;36.61;101100.88;5151053;28;20103;-80
2022/08/25 02:24:25;;;;;;;0.30;0.30;;;;;;;25.16;36.93;101096.91;5190427;28;20028;-80
2022/08/25 02:26:56;;;;;;;0.43;0.43;;;;;;;25.12;36.90;101096.31;5170368;28;20026;-80
2022/08/25 02:29:27;;;;;;;1.65;1.05;;;;;;;25.12;36.93;101099.84;5166617;28;20069;-80
2022/08/25 02:31:58;;;;;;;0.60;0.60;;;;;;;25.09;37.11;101102.75;5184473;28;20044;-79
2022/08/25 02:34:29;;;;;;;0.90;0.88;;;;;;;25.09;36.93;101100.09;5173976;28;20034;-79
2022/08/25 02:37:12;;;;;;;0.30;0.30;;;;;;;25.06;37.12;101100.34;5194207;28;20064;-80
2022/08/25 02:39:43;;;;;;;0.30;0.30;;;;;;;25.03;37.41;101097.91;5187909;28;20654;-80
2022/08/25 02:42:14;;;;;;;0.88;0.82;;;;;;;25.03;37.25;101095.22;5168682;28;20076;-82
2022/08/25 02:44:47;;;;;;;0.60;0.52;;;;;;;25.01;37.27;101086.44;5189924;28;20037;-80
2022/08/25 02:47:22;;;;;;;0.57;0.57;;;;;;;24.99;37.56;101088.44;5202709;28;20125;-80
2022/08/25 02:49:52;;;;;;;0.52;0.52;;;;;;;24.97;37.27;101093.91;5170298;28;20060;-80
2022/08/25 02:52:24;;;;;;;0.20;0.20;;;;;;;24.95;37.60;101081.59;5151626;28;20491;-80
2022/08/25 02:54:54;;;;;;;0.50;0.50;;;;;;;24.92;37.85;101088.06;5186087;28;20041;-80
2022/08/25 02:57:28;;;;;;;0.43;0.43;;;;;;;24.90;37.80;101087.34;5163491;28;20045;-80
2022/08/25 02:59:58;;;;;;;0.25;0.25;;;;;;;24.89;37.53;101082.09;5166060;28;20029;-80
2022/08/25 03:02:43;;;;;;;0.40;0.40;;;;;;;24.85;37.62;101078.81;5148488;28;20049;-80
2022/08/25 03:05:45;;;;;;;1.00;0.88;;;;;;;24.81;37.75;101070.16;5156094;28;20029;-80
2022/08/25 03:08:19;;;;;;;0.50;0.50;;;;;;;24.78;37.93;101069.56;5153073;28;20450;-80
2022/08/25 03:10:58;;;;;;;0.20;0.20;;;;;;;24.78;37.69;101072.25;5185517;28;20099;-80
2022/08/25 03:13:31;;;;;;;0.40;0.40;;;;;;;24.74;37.66;101070.78;5170623;28;20054;-80
2022/08/25 03:16:04;;;;;;;0.43;0.43;;;;;;;24.72;38.05;101070.06;5176894;28;20041;-80
2022/08/25 03:18:36;;;;;;;0.35;0.35;;;;;;;24.70;37.61;101064.81;5163180;28;20045;-80
2022/08/25 03:21:13;;;;;;;0.43;0.43;;;;;;;24.67;37.88;101062.38;5192544;28;20060;-80
2022/08/25 03:23:44;;;;;;;0.20;0.20;;;;;;;24.63;37.84;101056.38;5169347;28;20133;-80
2022/08/25 03:29:04;;;;;;;0.32;0.32;;;;;;;24.63;37.99;101050.19;5204364;28;20030;-79
2022/08/25 03:31:38;;;;;;;0.50;0.50;;;;;;;24.59;38.20;101049.56;5189072;28;20029;-80
2022/08/25 03:34:13;;;;;;;0.30;0.30;;;;;;;24.54;38.35;101049.09;5186024;28;20043;-80
2022/08/25 03:36:46;;;;;;;0.60;0.60;;;;;;;24.60;37.72;101055.78;5171132;28;20026;-80
2022/08/25 03:39:18;;;;;;;0.25;0.25;;;;;;;24.55;38.53;101058.00;5148976;28;20052;-80
2022/08/25 03:41:50;;;;;;;0.50;0.50;;;;;;;24.49;38.55;101060.22;5130966;28;20030;-80
2022/08/25 03:44:24;;;;;;;0.30;0.30;;;;;;;24.47;38.70;101061.28;5199868;28;20049;-80
2022/08/25 03:46:54;;;;;;;0.95;0.95;;;;;;;24.50;37.96;101055.69;5200161;28;20033;-80
2022/08/25 03:49:25;;;;;;;0.65;0.65;;;;;;;24.48;38.54;101050.47;5183288;28;20044;-80
2022/08/25 03:51:55;;;;;;;5.15;1.08;;;;;;;24.47;38.65;101048.75;5166577;28;20049;-81
2022/08/25 03:54:26;;;;;;;1.42;1.08;;;;;;;24.52;38.12;101043.84;5147235;28;20046;-79
2022/08/25 03:56:56;;;;;;;0.40;0.40;;;;;;;24.50;38.34;101035.06;5161508;28;20038;-79
2022/08/25 03:59:27;;;;;;;0.68;0.50;;;;;;;24.47;38.33;101029.97;5163310;28;20038;-80
2022/08/25 04:01:58;;;;;;;10.85;1.75;;;;;;;24.50;38.19;101029.69;5174580;28;20036;-80
2022/08/25 04:04:28;;;;;;;1.45;1.02;;;;;;;24.48;38.47;101023.63;5159325;28;20033;-80
2022/08/25 04:06:59;;;;;;;0.47;0.47;;;;;;;24.42;38.91;101021.44;5140803;28;20632;-80
2022/08/25 04:09:30;;;;;;;0.88;0.88;;;;;;;24.42;38.59;101020.59;5145100;28;20137;-80
2022/08/25 04:12:09;;;;;;;0.25;0.25;;;;;;;24.40;38.62;101027.91;5163311;28;20105;-79
2022/08/25 04:14:41;;;;;;;0.30;0.30;;;;;;;24.40;38.51;101033.25;5152627;28;20080;-82
2022/08/25 04:17:12;;;;;;;0.47;0.47;;;;;;;24.40;38.82;101026.09;5166889;28;20049;-80
2022/08/25 04:19:46;;;;;;;0.30;0.30;;;;;;;24.39;39.54;101027.06;5171886;28;20073;-80
2022/08/25 04:22:17;;;;;;;0.40;0.40;;;;;;;24.37;39.34;101023.66;5180830;28;20045;-81
2022/08/25 04:24:47;;;;;;;0.50;0.50;;;;;;;24.32;39.27;101015.97;5149214;28;20079;-80
2022/08/25 04:27:18;;;;;;;0.50;0.50;;;;;;;24.38;39.28;101025.34;5167387;28;20343;-79
2022/08/25 04:29:49;;;;;;;1.10;0.50;;;;;;;24.34;38.90;101021.19;5165312;28;20030;-80
2022/08/25 04:32:19;;;;;;;0.40;0.40;;;;;;;24.34;38.93;101024.75;5156219;28;20511;-80
2022/08/25 04:34:51;;;;;;;0.40;0.40;;;;;;;24.31;39.13;101024.16;5152551;28;20056;-80
2022/08/25 04:37:22;;;;;;;0.60;0.60;;;;;;;24.29;39.31;101020.72;5180024;28;20050;-81
2022/08/25 04:39:53;;;;;;;0.40;0.40;;;;;;;24.27;39.27;101026.22;5133982;28;20358;-80
2022/08/25 04:42:25;;;;;;;0.60;0.60;;;;;;;24.25;39.27;101024.66;5180326;28;20046;-81
2022/08/25 04:44:55;;;;;;;0.20;0.20;;;;;;;24.30;39.53;101031.31;5196771;28;20029;-80
2022/08/25 04:47:26;;;;;;;0.43;0.43;;;;;;;24.27;39.51;101028.03;5146834;28;20046;-80
2022/08/25 04:49:57;;;;;;;0.45;0.45;;;;;;;24.23;39.25;101026.59;5189032;28;20026;-80
2022/08/25 04:52:27;;;;;;;0.32;0.32;;;;;;;24.24;39.60;101026.47;5167146;28;20045;-81
2022/08/25 04:54:59;;;;;;;1.20;1.08;;;;;;;24.21;39.89;101029.41;5148252;28;20073;-80
2022/08/25 04:57:29;;;;;;;0.70;0.70;;;;;;;24.22;40.17;101019.53;5163728;28;20030;-80
2022/08/25 05:00:00;;;;;;;0.45;0.45;;;;;;;24.23;39.72;101016.72;5199428;28;20026;-80
2022/08/25 05:02:31;;;;;;;0.60;0.60;;;;;;;24.23;39.29;101016.72;5157933;28;20056;-80
2022/08/25 05:05:06;;;;;;;0.30;0.30;;;;;;;24.21;39.94;101016.00;5168703;28;20037;-80
2022/08/25 05:07:39;;;;;;;0.65;0.65;;;;;;;24.15;40.25;101014.66;5142403;28;20143;-81
2022/08/25 05:10:10;;;;;;;0.38;0.38;;;;;;;24.19;40.00;101016.09;5146467;28;20099;-80
2022/08/25 05:12:41;;;;;;;0.30;0.30;;;;;;;24.19;39.47;101013.44;5151635;28;20045;-80
2022/08/25 05:18:00;;;;;;;0.35;0.35;;;;;;;24.16;40.10;101011.00;5180817;28;20041;-81
2022/08/25 05:20:35;;;;;;;;;;;;;;;24.11;41.21;101010.50;5185618;28;20036;-80
2022/08/25 05:23:09;;;;;;;0.50;0.50;;;;;;;24.08;40.33;101013.44;5196846;28;20404;-80
2022/08/25 05:25:41;;;;;;;1.15;0.90;;;;;;;24.04;41.07;101011.97;5201409;28;20290;-81
2022/08/25 05:28:13;;;;;;;0.40;0.40;;;;;;;24.05;40.69;101008.31;5183545;28;20044;-80
2022/08/25 05:30:44;;;;;;;0.47;0.47;;;;;;;24.06;40.32;101020.75;5183497;28;20042;-80
2022/08/25 05:33:16;;;;;;;0.30;0.30;;;;;;;24.07;40.61;101014.41;5143177;28;20046;-80
2022/08/25 05:35:46;;;;;;;0.30;0.30;;;;;;;24.07;40.12;101009.06;5181854;28;20540;-80
2022/08/25 05:38:19;;;;;;;0.20;0.20;;;;;;;24.09;40.52;101014.28;5160432;28;20057;-80
2022/08/25 05:41:02;;;;;;;0.60;0.60;;;;;;;24.09;40.46;101009.78;5181275;28;20054;-80
2022/08/25 05:43:32;;;;;;;1.98;1.30;;;;;;;24.08;40.78;101008.09;5142455;28;20648;-81
2022/08/25 05:46:36;;;;;;;0.43;0.43;;;;;;;24.09;40.34;100999.03;5181547;28;20026;-80
2022/08/25 05:49:09;;;;;;;0.65;0.65;;;;;;;24.12;41.24;100993.44;5179674;28;20050;-80
2022/08/25 05:51:40;;;;;;;1.30;0.82;;;;;;;24.13;40.40;100995.16;5151783;28;20144;-80
2022/08/25 05:54:10;;;;;;;0.30;0.30;;;;;;;24.15;40.79;100992.34;5199076;28;20133;-80
2022/08/25 05:56:41;;;;;;;0.63;0.63;;;;;;;24.13;40.98;100997.00;5188640;28;20034;-80
2022/08/25 05:59:11;;;;;;;0.43;0.43;;;;;;;24.12;41.09;101004.19;5166522;28;20399;-80
2022/08/25 06:04:31;;;;;;;0.43;0.43;;;;;;;24.14;40.63;101007.59;5189119;28;20045;-80
2022/08/25 06:07:04;;;;;;;0.55;0.55;;;;;;;24.13;41.13;101007.72;5176362;28;20121;-80
2022/08/25 06:09:39;;;;;;;0.85;0.85;;;;;;;24.13;40.79;101005.03;5190357;28;20071;-80
2022/08/25 06:12:13;;;;;;;1.70;0.95;;;;;;;24.15;40.99;101003.06;5202005;28;20037;-80
2022/08/25 06:14:44;;;;;;;0.25;0.25;;;;;;;24.13;41.35;101005.03;5171370;28;20101;-80
2022/08/25 06:17:16;;;;;;;1.30;0.95;;;;;;;24.15;41.17;101008.44;5191757;28;20072;-81
2022/08/25 06:19:46;;;;;;;0.80;0.80;;;;;;;24.17;40.92;101001.97;5209243;28;20040;-80
2022/08/25 06:22:17;;;;;;;0.30;0.30;;;;;;;24.17;41.48;101007.31;5171815;28;20284;-80
2022/08/25 06:24:47;;;;;;;0.85;0.85;;;;;;;24.17;41.28;101007.31;5176964;28;20090;-80
2022/08/25 06:27:18;;;;;;;2.75;1.15;;;;;;;24.21;41.30;101007.97;5191678;28;20026;-80
2022/08/25 06:29:49;;;;;;;3.92;0.93;;;;;;;24.24;41.30;101007.69;5186578;28;20116;-80
2022/08/25 06:32:20;;;;;;;0.20;0.20;;;;;;;24.25;41.15;101017.44;5202977;28;20037;-80
2022/08/25 06:34:50;;;;;;;0.38;0.38;;;;;;;24.27;41.37;101014.63;5186797;28;20277;-80
2022/08/25 06:37:21;;;;;;;0.30;0.30;;;;;;;24.29;41.09;101012.69;5174426;28;20108;-80
2022/08/25 06:39:54;;;;;;;0.57;0.57;;;;;;;24.31;41.21;101013.41;5155154;28;20466;-80
2022/08/25 06:42:25;;;;;;;0.40;0.40;;;;;;;24.31;41.09;101014.25;5185441;28;20481;-80
2022/08/25 06:44:55;;;;;;;0.35;0.35;;;;;;;24.31;41.44;101014.25;5185520;28;20148;-81
2022/08/25 06:47:31;;;;;;;0.20;0.20;;;;;;;24.32;41.30;101017.81;5170763;28;20501;-81
2022/08/25 06:50:03;;;;;;;0.77;0.77;;;;;;;24.35;41.78;101021.09;5187869;28;20039;-81
2022/08/25 06:52:42;;;;;;;0.52;0.32;;;;;;;24.38;41.42;101020.00;5185558;28;20069;-82
2022/08/25 06:55:16;;;;;;;0.30;0.30;;;;;;;24.34;42.07;101022.06;5169706;28;20056;-80
2022/08/25 06:57:51;;;;;;;0.50;0.50;;;;;;;24.35;41.75;101018.41;5185316;28;20116;-81
2022/08/25 07:00:22;;;;;;;0.32;0.32;;;;;;;24.40;41.64;101019.84;5187719;28;20533;-80
2022/08/25 07:02:52;;;;;;;0.32;0.32;;;;;;;24.40;41.91;101020.72;5190792;28;20064;-81
2022/08/25 07:05:23;;;;;;;0.38;0.38;;;;;;;24.43;41.95;101014.25;5185685;28;20029;-81
2022/08/25 07:07:53;;;;;;;0.95;0.80;;;;;;;24.43;41.62;101016.94;5184344;28;20049;-80
2022/08/25 07:10:24;;;;;;;0.40;0.40;;;;;;;24.46;41.36;101009.50;5157711;28;20117;-82
2022/08/25 07:12:59;;;;;;;0.32;0.32;;;;;;;24.47;41.97;101013.88;5176694;28;20379;-81
2022/08/25 07:15:37;;;;;;;1.45;0.63;;;;;;;24.49;42.07;101011.94;5158810;28;20045;-81
2022/08/25 07:18:07;;;;;;;0.52;0.52;;;;;;;24.49;41.77;101016.44;5172783;28;20065;-80
2022/08/25 07:20:39;;;;;;;10.65;1.40;;;;;;;24.48;42.04;101015.59;5173485;28;20056;-81
2022/08/25 07:23:10;;;;;;;0.40;0.40;;;;;;;24.55;41.62;101009.72;5203812;28;20086;-81
2022/08/25 07:25:43;;;;;;;0.50;0.50;;;;;;;24.54;41.82;101008.00;5205293;28;20029;-80
2022/08/25 07:28:15;;;;;;;0.50;0.50;;;;;;;24.53;42.46;101009.84;5185135;28;20037;-81
2022/08/25 07:30:45;;;;;;;0.30;0.30;;;;;;;24.57;41.97;101007.78;5203733;28;20032;-81
2022/08/25 07:33:16;;;;;;;0.22;0.22;;;;;;;24.62;41.82;101006.41;5189756;28;20041;-81
2022/08/25 07:35:47;;;;;;;4.93;0.50;;;;;;;24.63;42.18;101007.25;5189982;28;20339;-82
2022/08/25 07:38:17;;;;;;;0.43;0.43;;;;;;;24.65;41.88;101010.66;5190495;28;20073;-81
2022/08/25 07:40:53;;;;;;;0.30;0.30;;;;;;;24.71;41.86;101002.16;5202743;28;20486;-81
2022/08/25 07:43:24;;;;;;;0.80;0.70;;;;;;;24.76;42.39;101002.59;5172293;28;20097;-81
2022/08/25 07:45:54;;;;;;;0.65;0.63;;;;;;;24.77;41.98;101004.31;5177620;28;20053;-82
2022/08/25 07:48:25;;;;;;;0.30;0.30;;;;;;;24.83;42.21;101009.16;5186260;28;20598;-82
2022/08/25 07:50:55;;;;;;;0.65;0.50;;;;;;;24.85;42.03;101010.88;5153467;28;20041;-79
2022/08/25 07:53:26;;;;;;;0.30;0.30;;;;;;;24.86;42.12;101008.06;5180840;28;20030;-80
2022/08/25 07:56:18;;;;;;;3.10;1.25;;;;;;;24.94;42.01;101015.47;5197051;28;20033;-80
2022/08/25 07:58:50;;;;;;;1.05;0.68;;;;;;;24.95;42.37;101019.84;5200196;28;20041;-80
2022/08/25 08:01:22;;;;;;;0.38;0.38;;;;;;;24.99;42.47;101015.94;5199392;28;20084;-80
2022/08/25 08:03:55;;;;;;;0.38;0.38;;;;;;;25.05;41.92;101018.13;5186126;28;20083;-80
2022/08/25 08:06:26;;;;;;;7.60;1.33;;;;;;;25.04;41.93;101013.72;5203089;28;20037;-80
2022/08/25 08:08:57;;;;;;;0.30;0.30;;;;;;;25.05;42.32;101012.75;5159281;28;20057;-79
2022/08/25 08:11:33;;;;;;;0.30;0.30;;;;;;;25.12;41.90;101005.88;5172423;28;20116;-81
2022/08/25 08:14:03;;;;;;;0.70;0.70;;;;;;;25.17;42.10;100999.25;5170561;28;20033;-80
2022/08/25 08:16:40;;;;;;;9.82;1.50;;;;;;;25.23;41.95;100996.06;5153586;28;20049;-81
2022/08/25 08:19:10;;;;;;;0.50;0.50;;;;;;;25.16;42.07;100997.56;5183854;28;20038;-81
2022/08/25 08:21:41;;;;;;;0.28;0.28;;;;;;;25.16;41.97;100997.56;5185437;28;20029;-80
2022/08/25 08:24:13;;;;;;;0.30;0.30;;;;;;;25.14;41.64;100995.88;5167047;28;20047;-81
2022/08/25 08:26:43;;;;;;;2.42;0.80;;;;;;;25.19;41.99;100991.91;5184359;28;20037;-80
2022/08/25 08:29:15;;;;;;;0.45;0.45;;;;;;;25.25;41.81;100991.38;5162848;28;20047;-80
2022/08/25 08:31:47;;;;;;;0.75;0.75;;;;;;;25.23;42.25;100983.47;5166669;28;20059;-81
2022/08/25 08:34:18;;;;;;;;;;;;;;;25.27;41.94;100990.31;5164000;28;20038;-80
2022/08/25 08:36:48;;;;;;;0.30;0.30;;;;;;;25.26;41.81;100987.72;5168249;28;20272;-81
2022/08/25 08:39:19;;;;;;;0.40;0.40;;;;;;;25.27;42.07;100984.06;5165595;28;20049;-81
2022/08/25 08:42:17;;;;;;;0.52;0.52;;;;;;;25.39;41.88;100980.38;5183344;28;20033;-80
2022/08/25 08:45:20;;;;;;;3.45;1.23;;;;;;;25.34;41.86;100979.03;5165819;28;20045;-80
2022/08/25 08:48:12;;;;;;;0.40;0.40;;;;;;;25.37;41.83;100978.78;5176335;28;20045;-80
2022/08/25 08:51:11;;;;;;;0.70;0.70;;;;;;;25.39;42.23;100974.13;5152410;28;20034;-80
2022/08/25 08:53:47;;;;;;;0.40;0.40;;;;;;;25.50;41.91;100967.81;5169779;28;20056;-80
2022/08/25 08:56:27;;;;;;;0.38;0.35;;;;;;;25.43;42.24;100967.53;5187406;28;20136;-81
2022/08/25 08:59:01;;;;;;;0.25;0.25;;;;;;;25.49;42.02;100960.78;5179670;28;20050;-81
2022/08/25 09:01:38;;;;;;;0.55;0.55;;;;;;;25.56;41.86;100951.19;5154632;28;20863;-81
2022/08/25 09:04:26;;;;;;;0.50;0.50;;;;;;;25.60;41.98;100956.16;5157839;28;20570;-81
2022/08/25 09:06:59;;;;;;;0.45;0.45;;;;;;;25.77;41.91;100951.16;5149695;28;20030;-80
2022/08/25 09:09:36;;;;;;;0.47;0.47;;;;;;;25.74;41.90;100951.41;5134230;28;20065;-81
2022/08/25 09:12:30;;;;;;;1.45;0.65;;;;;;;25.73;41.97;100941.66;5164133;28;20044;-81
2022/08/25 09:15:06;;;;;;;1.25;0.68;;;;;;;25.77;41.93;100948.47;5182565;28;20755;-80
2022/08/25 09:17:56;;;;;;;0.77;0.43;;;;;;;25.76;42.03;100954.81;5167518;28;20045;-81
2022/08/25 09:21:10;;;;;;;2.75;1.17;;;;;;;25.86;41.84;100944.09;5191461;28;20135;-81
2022/08/25 09:23:53;;;;;;;0.85;0.85;;;;;;;25.86;42.04;100950.34;5175934;28;20495;-82
2022/08/25 09:26:32;;;;;;;0.40;0.40;;;;;;;25.95;41.86;100945.97;5183087;28;20033;-81
2022/08/25 09:29:09;;;;;;;0.40;0.40;;;;;;;26.10;41.51;100943.78;5148991;28;20052;-82
2022/08/25 09:31:41;;;;;;;0.57;0.57;;;;;;;26.13;41.78;100948.03;5169452;28;20041;-81
2022/08/25 09:34:21;;;;;;;0.40;0.40;;;;;;;26.07;42.21;100936.78;5169251;28;20041;-82
2022/08/25 09:36:51;;;;;;;0.20;0.20;;;;;;;26.04;41.99;100942.47;5186045;28;20099;-82
2022/08/25 09:39:22;;;;;;;0.32;0.32;;;;;;;26.15;41.87;100933.47;5167101;28;20045;-82
2022/08/25 09:41:56;;;;;;;0.50;0.50;;;;;;;26.16;41.77;100936.97;5185590;28;20117;-80
2022/08/25 09:44:42;;;;;;;1.75;0.75;;;;;;;26.17;42.56;100936.00;5185173;28;20088;-81
2022/08/25 09:47:22;;;;;;;0.40;0.40;;;;;;;26.20;42.15;100933.03;5156018;28;20029;-81
2022/08/25 09:49:59;;;;;;;0.20;0.20;;;;;;;26.30;42.08;100933.06;5152991;28;20032;-81
2022/08/25 09:52:37;;;;;;;1.58;0.60;;;;;;;26.29;42.05;100932.22;5172280;28;20057;-81
2022/08/25 09:55:10;;;;;;;1.05;0.90;;;;;;;26.37;42.35;100924.28;5160255;28;20556;-82
2022/08/25 09:57:44;;;;;;;0.30;0.30;;;;;;;26.45;41.88;100920.88;5141062;28;20066;-81
2022/08/25 10:00:26;;;;;;;1.02;0.50;;;;;;;26.57;41.67;100918.91;5184639;28;20072;-82
2022/08/25 10:03:10;;;;;;;0.70;0.50;;;;;;;26.66;41.40;100922.59;5188833;28;20038;-81
2022/08/25 10:06:10;;;;;;;0.43;0.43;;;;;;;26.61;42.03;100925.72;5170618;28;20499;-81
2022/08/25 10:08:44;;;;;;;0.43;0.43;;;;;;;26.69;41.95;100917.78;5168984;28;20049;-82
2022/08/25 10:11:32;;;;;;;0.38;0.38;;;;;;;26.78;41.39;100912.56;5182315;28;20038;-81
2022/08/25 10:14:22;;;;;;;0.50;0.45;;;;;;;26.83;41.53;100907.59;5170025;28;20037;-81
2022/08/25 10:17:23;;;;;;;0.20;0.20;;;;;;;26.93;41.68;100910.31;5170394;28;20072;-82
2022/08/25 10:20:21;;;;;;;0.60;0.60;;;;;;;26.98;41.36;100908.00;5186014;28;20072;-82
2022/08/25 10:23:11;;;;;;;0.52;0.52;;;;;;;27.06;41.23;100896.53;5167378;28;20110;-81
2022/08/25 10:25:48;;;;;;;0.32;0.32;;;;;;;27.03;41.45;100897.66;5165173;28;20045;-82
2022/08/25 10:28:51;;;;;;;0.32;0.32;;;;;;;27.10;41.40;100889.84;5160103;28;20068;-81
2022/08/25 10:31:35;;;;;;;0.40;0.40;;;;;;;27.20;40.96;100890.69;5185147;28;20094;-82
2022/08/25 10:34:37;;;;;;;0.40;0.40;;;;;;;27.31;40.66;100877.00;5169816;28;20080;-81
2022/08/25 10:37:36;;;;;;;0.47;0.47;;;;;;;27.38;40.74;100873.75;5179041;28;20057;-80
2022/08/25 10:40:21;;;;;;;0.22;0.22;;;;;;;27.37;40.96;100867.50;5169633;28;20022;-80
2022/08/25 10:43:21;;;;;;;0.40;0.40;;;;;;;27.42;40.56;100858.97;5174166;28;20046;-82
2022/08/25 10:46:04;;;;;;;0.20;0.20;;;;;;;27.48;40.62;100858.41;5172425;28;20034;-80
2022/08/25 10:48:59;;;;;;;0.43;0.43;;;;;;;27.57;40.27;100862.91;5170839;28;20041;-81
2022/08/25 10:51:36;;;;;;;0.90;0.57;;;;;;;27.54;40.07;100852.44;5214690;28;20036;-80
2022/08/25 10:54:25;;;;;;;0.40;0.40;;;;;;;27.62;40.64;100855.22;5198652;28;20060;-83
2022/08/25 10:57:10;;;;;;;0.47;0.25;;;;;;;27.73;39.78;100851.47;5198539;28;20021;-82
2022/08/25 11:00:21;;;;;;;0.40;0.40;;;;;;;27.80;39.50;100840.94;5193887;28;20064;-82
2022/08/25 11:03:13;;;;;;;0.40;0.40;;;;;;;27.80;38.87;100841.78;5135644;28;20054;-82
2022/08/25 11:06:06;;;;;;;0.50;0.50;;;;;;;27.91;39.81;100845.25;5193242;28;20042;-84
2022/08/25 11:08:46;;;;;;;0.28;0.28;;;;;;;27.92;39.46;100839.72;5176927;28;20049;-82
2022/08/25 11:11:32;;;;;;;0.57;0.50;;;;;;;28.05;39.08;100839.34;5209718;28;20048;-80
2022/08/25 11:14:16;;;;;;;0.25;0.25;;;;;;;28.04;38.74;100843.03;5178661;28;20044;-82
2022/08/25 11:17:03;;;;;;;0.30;0.30;;;;;;;28.07;38.81;100834.69;5203404;28;20151;-82
2022/08/25 11:19:49;;;;;;;0.43;0.43;;;;;;;28.26;38.61;100833.66;5195499;28;20307;-80
2022/08/25 11:22:30;;;;;;;1.80;0.93;;;;;;;28.28;38.55;100822.72;5187196;28;20029;-81
2022/08/25 11:25:18;;;;;;;0.85;0.85;;;;;;;28.29;37.74;100826.28;5166364;28;20034;-80
2022/08/25 11:28:20;;;;;;;0.57;0.50;;;;;;;28.32;37.58;100825.94;5193883;28;20052;-81
2022/08/25 11:30:54;;;;;;;0.10;0.10;;;;;;;28.46;37.65;100820.00;5195745;28;20041;-81
2022/08/25 11:33:26;;;;;;;0.20;0.20;;;;;;;28.50;38.35;100818.69;5209219;28;20117;-84
2022/08/25 11:36:02;;;;;;;0.20;0.20;;;;;;;28.62;37.54;100816.56;5191160;28;20025;-81
2022/08/25 11:38:59;;;;;;;0.20;0.20;;;;;;;28.66;37.82;100825.19;5199062;28;20041;-81
2022/08/25 11:41:55;;;;;;;0.20;0.20;;;;;;;28.78;36.76;100815.88;5176645;28;20041;-82
2022/08/25 11:44:54;;;;;;;0.45;0.45;;;;;;;28.82;36.39;100801.03;5193624;28;20064;-81
2022/08/25 11:47:34;;;;;;;0.20;0.20;;;;;;;28.96;37.17;100804.19;5185785;28;20041;-82
2022/08/25 11:50:24;;;;;;;0.40;0.40;;;;;;;29.01;36.83;100801.81;5146422;28;20097;-82
2022/08/25 11:53:01;;;;;;;0.20;0.20;;;;;;;29.10;35.79;100808.97;5151845;28;20045;-80
2022/08/25 11:55:52;;;;;;;0.20;0.20;;;;;;;29.10;36.90;100798.16;5162255;28;20030;-81
2022/08/25 11:58:31;;;;;;;0.20;0.20;;;;;;;29.16;36.46;100799.38;5161566;28;20035;-81
2022/08/25 12:01:04;;;;;;;0.30;0.30;;;;;;;29.25;36.60;100797.53;5167472;28;20109;-80
2022/08/25 12:03:40;;;;;;;0.50;0.50;;;;;;;29.33;36.31;100789.50;5157773;28;20046;-80
2022/08/25 12:06:20;;;;;;;0.20;0.20;;;;;;;29.40;35.94;100795.13;5205732;28;20033;-83
2022/08/25 12:09:13;;;;;;;0.68;0.60;;;;;;;29.48;36.36;100776.22;5168095;28;20042;-80
2022/08/25 12:11:47;;;;;;;0.25;0.25;;;;;;;29.58;35.83;100773.38;5184368;28;20041;-80
2022/08/25 12:14:21;;;;;;;0.20;0.20;;;;;;;29.68;35.90;100779.47;5187799;28;20034;-80
2022/08/25 12:16:59;;;;;;;0.50;0.50;;;;;;;29.79;35.26;100771.03;5155649;28;20038;-82